sensor_id;sensor_type;location;lat;lon;timestamp;P1;durP1;ratioP1;P2;durP2;ratioP2
25467;SDS011;13384;24.794;110.498;2022-10-16T00:00:24;10.88;;;8.05;;
25467;SDS011;13384;24.794;110.498;2022-10-16T00:03:13;11.95;;;8.27;;
25467;SDS011;13384;24.794;110.498;2022-10-16T00:05:44;9.90;;;7.45;;
25467;SDS011;13384;24.794;110.498;2022-10-16T00:08:33;10.60;;;7.15;;
25467;SDS011;13384;24.794;110.498;2022-10-16T00:11:27;11.05;;;8.13;;
25467;SDS011;13384;24.794;110.498;2022-10-16T00:14:03;11.93;;;8.07;;
25467;SDS011;13384;24.794;110.498;2022-10-16T00:17:11;10.40;;;7.68;;
25467;SDS011;13384;24.794;110.498;2022-10-16T00:20:02;9.32;;;7.78;;
25467;SDS011;13384;24.794;110.498;2022-10-16T00:22:51;9.88;;;7.13;;
25467;SDS011;13384;24.794;110.498;2022-10-16T00:25:22;9.75;;;7.68;;
25467;SDS011;13384;24.794;110.498;2022-10-16T00:28:13;9.95;;;7.90;;
25467;SDS011;13384;24.794;110.498;2022-10-16T00:31:24;9.85;;;8.07;;
25467;SDS011;13384;24.794;110.498;2022-10-16T00:33:57;10.52;;;8.02;;
25467;SDS011;13384;24.794;110.498;2022-10-16T00:36:30;8.95;;;7.10;;
25467;SDS011;13384;24.794;110.498;2022-10-16T00:39:23;12.38;;;8.45;;
25467;SDS011;13384;24.794;110.498;2022-10-16T00:42:16;11.45;;;7.65;;
25467;SDS011;13384;24.794;110.498;2022-10-16T00:44:58;11.65;;;8.48;;
25467;SDS011;13384;24.794;110.498;2022-10-16T00:47:30;10.10;;;7.68;;
25467;SDS011;13384;24.794;110.498;2022-10-16T00:50:27;10.18;;;7.60;;
25467;SDS011;13384;24.794;110.498;2022-10-16T00:53:14;10.73;;;7.57;;
25467;SDS011;13384;24.794;110.498;2022-10-16T00:56:07;11.60;;;8.00;;
25467;SDS011;13384;24.794;110.498;2022-10-16T00:59:08;10.52;;;7.65;;
25467;SDS011;13384;24.794;110.498;2022-10-16T01:02:29;8.50;;;7.15;;
25467;SDS011;13384;24.794;110.498;2022-10-16T01:05:21;9.18;;;7.55;;
25467;SDS011;13384;24.794;110.498;2022-10-16T01:08:06;10.23;;;7.68;;
25467;SDS011;13384;24.794;110.498;2022-10-16T01:11:02;9.65;;;7.55;;
25467;SDS011;13384;24.794;110.498;2022-10-16T01:14:39;9.40;;;7.43;;
25467;SDS011;13384;24.794;110.498;2022-10-16T01:17:28;9.80;;;7.75;;
25467;SDS011;13384;24.794;110.498;2022-10-16T01:20:42;11.05;;;7.40;;
25467;SDS011;13384;24.794;110.498;2022-10-16T01:30:07;10.32;;;8.00;;
25467;SDS011;13384;24.794;110.498;2022-10-16T01:33:20;9.68;;;7.38;;
25467;SDS011;13384;24.794;110.498;2022-10-16T01:36:09;13.40;;;7.68;;
25467;SDS011;13384;24.794;110.498;2022-10-16T01:39:11;9.60;;;7.88;;
25467;SDS011;13384;24.794;110.498;2022-10-16T01:41:53;11.43;;;8.40;;
25467;SDS011;13384;24.794;110.498;2022-10-16T01:44:49;12.07;;;8.45;;
25467;SDS011;13384;24.794;110.498;2022-10-16T01:47:46;12.18;;;8.10;;
25467;SDS011;13384;24.794;110.498;2022-10-16T01:50:39;10.60;;;8.27;;
25467;SDS011;13384;24.794;110.498;2022-10-16T01:53:13;9.38;;;7.47;;
25467;SDS011;13384;24.794;110.498;2022-10-16T01:56:09;13.15;;;9.07;;
25467;SDS011;13384;24.794;110.498;2022-10-16T01:59:20;9.07;;;7.95;;
25467;SDS011;13384;24.794;110.498;2022-10-16T02:02:29;13.98;;;10.07;;
25467;SDS011;13384;24.794;110.498;2022-10-16T02:05:04;12.70;;;8.65;;
25467;SDS011;13384;24.794;110.498;2022-10-16T02:07:43;17.58;;;11.95;;
25467;SDS011;13384;24.794;110.498;2022-10-16T02:10:32;11.00;;;8.32;;
25467;SDS011;13384;24.794;110.498;2022-10-16T02:16:08;12.88;;;9.40;;
25467;SDS011;13384;24.794;110.498;2022-10-16T02:19:03;9.45;;;8.27;;
25467;SDS011;13384;24.794;110.498;2022-10-16T02:21:57;11.02;;;8.88;;
25467;SDS011;13384;24.794;110.498;2022-10-16T02:24:33;11.05;;;8.48;;
25467;SDS011;13384;24.794;110.498;2022-10-16T02:33:39;9.75;;;8.30;;
25467;SDS011;13384;24.794;110.498;2022-10-16T02:36:11;11.38;;;8.45;;
25467;SDS011;13384;24.794;110.498;2022-10-16T02:38:43;9.32;;;7.70;;
25467;SDS011;13384;24.794;110.498;2022-10-16T02:41:15;10.77;;;8.02;;
25467;SDS011;13384;24.794;110.498;2022-10-16T02:44:24;12.75;;;8.50;;
25467;SDS011;13384;24.794;110.498;2022-10-16T02:47:08;11.25;;;8.40;;
25467;SDS011;13384;24.794;110.498;2022-10-16T02:49:52;10.63;;;8.32;;
25467;SDS011;13384;24.794;110.498;2022-10-16T02:52:35;11.48;;;8.00;;
25467;SDS011;13384;24.794;110.498;2022-10-16T02:55:42;10.50;;;7.97;;
25467;SDS011;13384;24.794;110.498;2022-10-16T02:58:52;10.63;;;8.13;;
25467;SDS011;13384;24.794;110.498;2022-10-16T03:01:56;10.13;;;8.20;;
25467;SDS011;13384;24.794;110.498;2022-10-16T03:05:04;10.10;;;8.05;;
25467;SDS011;13384;24.794;110.498;2022-10-16T03:07:53;8.70;;;7.80;;
25467;SDS011;13384;24.794;110.498;2022-10-16T03:10:42;11.13;;;8.55;;
25467;SDS011;13384;24.794;110.498;2022-10-16T03:13:11;9.90;;;7.82;;
25467;SDS011;13384;24.794;110.498;2022-10-16T03:16:00;11.07;;;8.30;;
25467;SDS011;13384;24.794;110.498;2022-10-16T03:18:29;11.88;;;8.68;;
25467;SDS011;13384;24.794;110.498;2022-10-16T03:20:57;11.88;;;8.48;;
25467;SDS011;13384;24.794;110.498;2022-10-16T03:23:46;10.50;;;7.93;;
25467;SDS011;13384;24.794;110.498;2022-10-16T03:26:35;13.23;;;8.85;;
25467;SDS011;13384;24.794;110.498;2022-10-16T03:29:24;10.18;;;8.40;;
25467;SDS011;13384;24.794;110.498;2022-10-16T03:31:55;10.30;;;8.70;;
25467;SDS011;13384;24.794;110.498;2022-10-16T03:34:24;11.25;;;8.60;;
25467;SDS011;13384;24.794;110.498;2022-10-16T03:36:53;11.30;;;8.25;;
25467;SDS011;13384;24.794;110.498;2022-10-16T03:39:21;12.45;;;7.82;;
25467;SDS011;13384;24.794;110.498;2022-10-16T03:42:10;10.60;;;7.90;;
25467;SDS011;13384;24.794;110.498;2022-10-16T03:45:03;11.23;;;8.25;;
25467;SDS011;13384;24.794;110.498;2022-10-16T03:47:32;11.63;;;7.85;;
25467;SDS011;13384;24.794;110.498;2022-10-16T03:50:17;11.00;;;7.93;;
25467;SDS011;13384;24.794;110.498;2022-10-16T03:53:01;11.13;;;8.05;;
25467;SDS011;13384;24.794;110.498;2022-10-16T03:55:30;10.55;;;7.50;;
25467;SDS011;13384;24.794;110.498;2022-10-16T03:57:59;10.60;;;7.88;;
25467;SDS011;13384;24.794;110.498;2022-10-16T04:00:28;11.75;;;8.13;;
25467;SDS011;13384;24.794;110.498;2022-10-16T04:02:57;10.95;;;8.65;;
25467;SDS011;13384;24.794;110.498;2022-10-16T04:05:28;9.50;;;7.70;;
25467;SDS011;13384;24.794;110.498;2022-10-16T04:08:20;11.93;;;8.23;;
25467;SDS011;13384;24.794;110.498;2022-10-16T04:10:52;9.32;;;7.75;;
25467;SDS011;13384;24.794;110.498;2022-10-16T04:13:59;9.90;;;7.55;;
25467;SDS011;13384;24.794;110.498;2022-10-16T04:17:09;9.75;;;8.10;;
25467;SDS011;13384;24.794;110.498;2022-10-16T04:19:53;10.57;;;7.68;;
25467;SDS011;13384;24.794;110.498;2022-10-16T04:22:22;11.65;;;7.82;;
25467;SDS011;13384;24.794;110.498;2022-10-16T04:25:29;9.07;;;7.50;;
25467;SDS011;13384;24.794;110.498;2022-10-16T04:28:21;10.10;;;7.57;;
25467;SDS011;13384;24.794;110.498;2022-10-16T04:31:23;13.10;;;8.80;;
25467;SDS011;13384;24.794;110.498;2022-10-16T04:34:18;12.35;;;8.23;;
25467;SDS011;13384;24.794;110.498;2022-10-16T04:37:04;9.82;;;7.53;;
25467;SDS011;13384;24.794;110.498;2022-10-16T04:39:36;9.27;;;7.93;;
25467;SDS011;13384;24.794;110.498;2022-10-16T04:42:30;12.20;;;8.40;;
25467;SDS011;13384;24.794;110.498;2022-10-16T04:45:01;9.77;;;7.93;;
25467;SDS011;13384;24.794;110.498;2022-10-16T04:47:58;9.65;;;7.80;;
25467;SDS011;13384;24.794;110.498;2022-10-16T04:50:59;11.98;;;8.23;;
25467;SDS011;13384;24.794;110.498;2022-10-16T04:53:30;9.75;;;7.35;;
25467;SDS011;13384;24.794;110.498;2022-10-16T04:56:03;11.55;;;8.02;;
25467;SDS011;13384;24.794;110.498;2022-10-16T04:59:14;10.80;;;7.63;;
25467;SDS011;13384;24.794;110.498;2022-10-16T05:02:12;9.63;;;7.55;;
25467;SDS011;13384;24.794;110.498;2022-10-16T05:05:02;9.73;;;8.02;;
25467;SDS011;13384;24.794;110.498;2022-10-16T05:07:51;9.73;;;7.65;;
25467;SDS011;13384;24.794;110.498;2022-10-16T05:10:43;8.52;;;7.05;;
25467;SDS011;13384;24.794;110.498;2022-10-16T05:13:32;11.40;;;7.57;;
25467;SDS011;13384;24.794;110.498;2022-10-16T05:16:12;8.98;;;7.32;;
25467;SDS011;13384;24.794;110.498;2022-10-16T05:19:07;10.43;;;7.25;;
25467;SDS011;13384;24.794;110.498;2022-10-16T05:22:15;8.52;;;7.47;;
25467;SDS011;13384;24.794;110.498;2022-10-16T05:25:16;11.07;;;7.97;;
25467;SDS011;13384;24.794;110.498;2022-10-16T05:27:48;10.48;;;7.53;;
25467;SDS011;13384;24.794;110.498;2022-10-16T05:30:43;9.32;;;7.57;;
25467;SDS011;13384;24.794;110.498;2022-10-16T05:33:38;11.43;;;8.18;;
25467;SDS011;13384;24.794;110.498;2022-10-16T05:36:29;8.80;;;6.97;;
25467;SDS011;13384;24.794;110.498;2022-10-16T05:38:58;8.05;;;6.57;;
25467;SDS011;13384;24.794;110.498;2022-10-16T05:42:02;8.80;;;7.25;;
25467;SDS011;13384;24.794;110.498;2022-10-16T05:44:32;8.30;;;7.10;;
25467;SDS011;13384;24.794;110.498;2022-10-16T05:47:01;9.98;;;7.70;;
25467;SDS011;13384;24.794;110.498;2022-10-16T05:49:30;10.90;;;7.82;;
25467;SDS011;13384;24.794;110.498;2022-10-16T05:52:19;9.77;;;6.65;;
25467;SDS011;13384;24.794;110.498;2022-10-16T05:55:00;10.48;;;7.63;;
25467;SDS011;13384;24.794;110.498;2022-10-16T05:57:31;11.07;;;8.07;;
25467;SDS011;13384;24.794;110.498;2022-10-16T06:00:02;9.98;;;7.57;;
25467;SDS011;13384;24.794;110.498;2022-10-16T06:03:14;9.13;;;7.45;;
25467;SDS011;13384;24.794;110.498;2022-10-16T06:05:46;11.10;;;7.18;;
25467;SDS011;13384;24.794;110.498;2022-10-16T06:08:39;9.70;;;7.55;;
25467;SDS011;13384;24.794;110.498;2022-10-16T06:11:12;9.98;;;7.38;;
25467;SDS011;13384;24.794;110.498;2022-10-16T06:14:12;9.63;;;6.78;;
25467;SDS011;13384;24.794;110.498;2022-10-16T06:16:43;10.07;;;7.05;;
25467;SDS011;13384;24.794;110.498;2022-10-16T06:19:37;9.55;;;6.80;;
25467;SDS011;13384;24.794;110.498;2022-10-16T06:22:08;8.13;;;6.85;;
25467;SDS011;13384;24.794;110.498;2022-10-16T06:25:05;8.50;;;7.20;;
25467;SDS011;13384;24.794;110.498;2022-10-16T06:27:40;9.73;;;7.50;;
25467;SDS011;13384;24.794;110.498;2022-10-16T06:30:33;10.77;;;7.03;;
25467;SDS011;13384;24.794;110.498;2022-10-16T06:33:37;9.37;;;6.60;;
25467;SDS011;13384;24.794;110.498;2022-10-16T06:36:13;9.93;;;7.20;;
25467;SDS011;13384;24.794;110.498;2022-10-16T06:38:44;8.45;;;6.90;;
25467;SDS011;13384;24.794;110.498;2022-10-16T06:41:13;7.95;;;6.43;;
25467;SDS011;13384;24.794;110.498;2022-10-16T06:43:44;9.07;;;6.88;;
25467;SDS011;13384;24.794;110.498;2022-10-16T06:46:37;9.20;;;6.53;;
25467;SDS011;13384;24.794;110.498;2022-10-16T06:49:29;9.40;;;6.93;;
25467;SDS011;13384;24.794;110.498;2022-10-16T06:52:17;7.88;;;6.50;;
25467;SDS011;13384;24.794;110.498;2022-10-16T06:54:59;9.65;;;7.00;;
25467;SDS011;13384;24.794;110.498;2022-10-16T06:57:51;9.93;;;7.30;;
25467;SDS011;13384;24.794;110.498;2022-10-16T07:00:44;8.93;;;6.65;;
25467;SDS011;13384;24.794;110.498;2022-10-16T07:03:39;9.85;;;6.80;;
25467;SDS011;13384;24.794;110.498;2022-10-16T07:06:13;9.43;;;6.50;;
25467;SDS011;13384;24.794;110.498;2022-10-16T07:09:13;8.45;;;5.97;;
25467;SDS011;13384;24.794;110.498;2022-10-16T07:11:45;7.90;;;6.32;;
25467;SDS011;13384;24.794;110.498;2022-10-16T07:14:18;7.63;;;6.55;;
25467;SDS011;13384;24.794;110.498;2022-10-16T07:16:52;8.98;;;6.40;;
25467;SDS011;13384;24.794;110.498;2022-10-16T07:19:36;8.10;;;6.10;;
25467;SDS011;13384;24.794;110.498;2022-10-16T07:22:08;9.02;;;6.53;;
25467;SDS011;13384;24.794;110.498;2022-10-16T07:24:40;8.13;;;6.68;;
25467;SDS011;13384;24.794;110.498;2022-10-16T07:27:19;7.03;;;6.25;;
25467;SDS011;13384;24.794;110.498;2022-10-16T07:30:14;8.60;;;6.45;;
25467;SDS011;13384;24.794;110.498;2022-10-16T07:32:43;8.48;;;6.15;;
25467;SDS011;13384;24.794;110.498;2022-10-16T07:36:02;7.40;;;6.50;;
25467;SDS011;13384;24.794;110.498;2022-10-16T07:38:36;7.57;;;6.18;;
25467;SDS011;13384;24.794;110.498;2022-10-16T07:44:34;7.53;;;6.53;;
25467;SDS011;13384;24.794;110.498;2022-10-16T07:47:19;11.23;;;7.05;;
25467;SDS011;13384;24.794;110.498;2022-10-16T07:50:31;9.07;;;6.10;;
25467;SDS011;13384;24.794;110.498;2022-10-16T07:53:23;8.20;;;6.47;;
25467;SDS011;13384;24.794;110.498;2022-10-16T07:55:56;7.90;;;6.60;;
25467;SDS011;13384;24.794;110.498;2022-10-16T07:58:29;8.57;;;5.75;;
25467;SDS011;13384;24.794;110.498;2022-10-16T08:00:59;7.28;;;6.38;;
25467;SDS011;13384;24.794;110.498;2022-10-16T08:03:52;8.00;;;6.40;;
25467;SDS011;13384;24.794;110.498;2022-10-16T08:06:44;8.43;;;6.55;;
25467;SDS011;13384;24.794;110.498;2022-10-16T08:09:35;8.10;;;6.18;;
25467;SDS011;13384;24.794;110.498;2022-10-16T08:12:25;8.20;;;5.65;;
25467;SDS011;13384;24.794;110.498;2022-10-16T08:15:20;7.45;;;5.95;;
25467;SDS011;13384;24.794;110.498;2022-10-16T08:18:09;7.40;;;5.95;;
25467;SDS011;13384;24.794;110.498;2022-10-16T08:20:57;10.70;;;5.88;;
25467;SDS011;13384;24.794;110.498;2022-10-16T08:23:31;8.90;;;6.63;;
25467;SDS011;13384;24.794;110.498;2022-10-16T08:26:06;6.22;;;5.50;;
25467;SDS011;13384;24.794;110.498;2022-10-16T08:29:22;7.82;;;6.15;;
25467;SDS011;13384;24.794;110.498;2022-10-16T08:31:54;8.23;;;6.15;;
25467;SDS011;13384;24.794;110.498;2022-10-16T08:34:51;7.65;;;6.40;;
25467;SDS011;13384;24.794;110.498;2022-10-16T08:37:54;6.85;;;6.07;;
25467;SDS011;13384;24.794;110.498;2022-10-16T08:40:45;7.78;;;6.35;;
25467;SDS011;13384;24.794;110.498;2022-10-16T08:48:48;7.63;;;5.68;;
25467;SDS011;13384;24.794;110.498;2022-10-16T08:51:50;9.05;;;6.05;;
25467;SDS011;13384;24.794;110.498;2022-10-16T08:54:28;7.65;;;6.65;;
25467;SDS011;13384;24.794;110.498;2022-10-16T08:57:07;8.45;;;6.15;;
25467;SDS011;13384;24.794;110.498;2022-10-16T09:00:26;10.35;;;6.72;;
25467;SDS011;13384;24.794;110.498;2022-10-16T09:15:07;7.40;;;6.40;;
25467;SDS011;13384;24.794;110.498;2022-10-16T09:18:02;7.43;;;5.93;;
25467;SDS011;13384;24.794;110.498;2022-10-16T09:20:58;6.78;;;5.65;;
25467;SDS011;13384;24.794;110.498;2022-10-16T09:23:57;7.43;;;6.63;;
25467;SDS011;13384;24.794;110.498;2022-10-16T09:27:15;7.20;;;5.78;;
25467;SDS011;13384;24.794;110.498;2022-10-16T09:30:12;7.47;;;6.35;;
25467;SDS011;13384;24.794;110.498;2022-10-16T09:33:12;7.25;;;5.85;;
25467;SDS011;13384;24.794;110.498;2022-10-16T09:35:57;7.07;;;5.35;;
25467;SDS011;13384;24.794;110.498;2022-10-16T09:38:30;7.30;;;6.35;;
25467;SDS011;13384;24.794;110.498;2022-10-16T09:41:21;8.63;;;6.70;;
25467;SDS011;13384;24.794;110.498;2022-10-16T09:47:12;10.13;;;6.68;;
25467;SDS011;13384;24.794;110.498;2022-10-16T09:50:28;7.72;;;5.75;;
25467;SDS011;13384;24.794;110.498;2022-10-16T09:53:18;7.80;;;6.50;;
25467;SDS011;13384;24.794;110.498;2022-10-16T09:55:50;7.60;;;5.70;;
25467;SDS011;13384;24.794;110.498;2022-10-16T09:58:43;6.80;;;5.82;;
25467;SDS011;13384;24.794;110.498;2022-10-16T10:01:17;9.23;;;6.78;;
25467;SDS011;13384;24.794;110.498;2022-10-16T10:03:48;8.80;;;7.15;;
25467;SDS011;13384;24.794;110.498;2022-10-16T10:06:44;8.48;;;7.25;;
25467;SDS011;13384;24.794;110.498;2022-10-16T10:15:14;8.93;;;7.50;;
25467;SDS011;13384;24.794;110.498;2022-10-16T10:18:21;10.68;;;7.72;;
25467;SDS011;13384;24.794;110.498;2022-10-16T10:20:57;12.98;;;8.40;;
25467;SDS011;13384;24.794;110.498;2022-10-16T10:23:56;12.60;;;9.20;;
25467;SDS011;13384;24.794;110.498;2022-10-16T10:26:33;15.30;;;10.45;;
25467;SDS011;13384;24.794;110.498;2022-10-16T10:39:31;33.88;;;21.33;;
25467;SDS011;13384;24.794;110.498;2022-10-16T10:45:28;38.60;;;22.02;;
25467;SDS011;13384;24.794;110.498;2022-10-16T10:51:10;34.83;;;20.45;;
25467;SDS011;13384;24.794;110.498;2022-10-16T10:54:24;35.97;;;20.95;;
25467;SDS011;13384;24.794;110.498;2022-10-16T10:57:10;34.15;;;20.30;;
25467;SDS011;13384;24.794;110.498;2022-10-16T11:06:17;34.63;;;19.55;;
25467;SDS011;13384;24.794;110.498;2022-10-16T11:09:30;31.13;;;19.98;;
25467;SDS011;13384;24.794;110.498;2022-10-16T11:12:38;33.25;;;20.00;;
25467;SDS011;13384;24.794;110.498;2022-10-16T11:15:32;31.85;;;18.67;;
25467;SDS011;13384;24.794;110.498;2022-10-16T11:18:54;31.60;;;19.27;;
25467;SDS011;13384;24.794;110.498;2022-10-16T11:37:11;30.00;;;18.90;;
25467;SDS011;13384;24.794;110.498;2022-10-16T11:39:45;30.05;;;19.20;;
25467;SDS011;13384;24.794;110.498;2022-10-16T11:42:18;34.03;;;19.30;;
25467;SDS011;13384;24.794;110.498;2022-10-16T11:47:57;29.52;;;19.05;;
25467;SDS011;13384;24.794;110.498;2022-10-16T11:50:37;29.35;;;17.02;;
25467;SDS011;13384;24.794;110.498;2022-10-16T11:54:22;27.88;;;17.50;;
25467;SDS011;13384;24.794;110.498;2022-10-16T11:57:42;28.40;;;18.27;;
25467;SDS011;13384;24.794;110.498;2022-10-16T12:00:38;30.15;;;19.20;;
25467;SDS011;13384;24.794;110.498;2022-10-16T12:06:27;27.92;;;17.70;;
25467;SDS011;13384;24.794;110.498;2022-10-16T12:12:38;28.55;;;17.98;;
25467;SDS011;13384;24.794;110.498;2022-10-16T12:15:40;24.17;;;17.00;;
25467;SDS011;13384;24.794;110.498;2022-10-16T12:18:25;29.63;;;17.20;;
25467;SDS011;13384;24.794;110.498;2022-10-16T12:21:09;26.63;;;16.98;;
25467;SDS011;13384;24.794;110.498;2022-10-16T12:24:50;28.23;;;17.60;;
25467;SDS011;13384;24.794;110.498;2022-10-16T12:27:31;27.48;;;17.58;;
25467;SDS011;13384;24.794;110.498;2022-10-16T12:30:20;22.75;;;15.60;;
25467;SDS011;13384;24.794;110.498;2022-10-16T12:36:04;26.40;;;17.45;;
25467;SDS011;13384;24.794;110.498;2022-10-16T12:39:16;26.25;;;16.60;;
25467;SDS011;13384;24.794;110.498;2022-10-16T12:47:55;23.33;;;15.60;;
25467;SDS011;13384;24.794;110.498;2022-10-16T12:50:34;26.67;;;17.17;;
25467;SDS011;13384;24.794;110.498;2022-10-16T12:53:43;25.98;;;16.60;;
25467;SDS011;13384;24.794;110.498;2022-10-16T13:00:21;22.45;;;15.30;;
25467;SDS011;13384;24.794;110.498;2022-10-16T13:12:32;21.67;;;14.45;;
25467;SDS011;13384;24.794;110.498;2022-10-16T13:22:14;21.50;;;14.98;;
25467;SDS011;13384;24.794;110.498;2022-10-16T13:28:29;21.13;;;14.55;;
25467;SDS011;13384;24.794;110.498;2022-10-16T13:31:03;22.58;;;15.15;;
25467;SDS011;13384;24.794;110.498;2022-10-16T13:33:56;22.95;;;14.57;;
25467;SDS011;13384;24.794;110.498;2022-10-16T13:36:30;22.90;;;14.90;;
25467;SDS011;13384;24.794;110.498;2022-10-16T13:39:38;22.05;;;14.73;;
25467;SDS011;13384;24.794;110.498;2022-10-16T13:43:04;21.38;;;14.50;;
25467;SDS011;13384;24.794;110.498;2022-10-16T13:45:36;22.98;;;15.73;;
25467;SDS011;13384;24.794;110.498;2022-10-16T13:48:09;22.23;;;14.52;;
25467;SDS011;13384;24.794;110.498;2022-10-16T13:50:44;23.63;;;14.95;;
25467;SDS011;13384;24.794;110.498;2022-10-16T13:53:36;20.35;;;14.52;;
25467;SDS011;13384;24.794;110.498;2022-10-16T13:56:06;23.23;;;15.68;;
25467;SDS011;13384;24.794;110.498;2022-10-16T13:58:38;24.40;;;15.88;;
25467;SDS011;13384;24.794;110.498;2022-10-16T14:01:40;22.02;;;14.20;;
25467;SDS011;13384;24.794;110.498;2022-10-16T14:04:11;20.55;;;14.82;;
25467;SDS011;13384;24.794;110.498;2022-10-16T14:07:13;19.25;;;13.63;;
25467;SDS011;13384;24.794;110.498;2022-10-16T14:09:48;20.83;;;13.60;;
25467;SDS011;13384;24.794;110.498;2022-10-16T14:12:19;21.23;;;14.68;;
25467;SDS011;13384;24.794;110.498;2022-10-16T14:14:50;22.02;;;14.98;;
25467;SDS011;13384;24.794;110.498;2022-10-16T14:17:24;40.33;;;22.33;;
25467;SDS011;13384;24.794;110.498;2022-10-16T14:20:14;23.25;;;15.73;;
25467;SDS011;13384;24.794;110.498;2022-10-16T14:22:46;21.30;;;14.27;;
25467;SDS011;13384;24.794;110.498;2022-10-16T14:25:50;20.58;;;14.32;;
25467;SDS011;13384;24.794;110.498;2022-10-16T14:28:20;19.63;;;14.48;;
25467;SDS011;13384;24.794;110.498;2022-10-16T14:30:54;20.23;;;14.20;;
25467;SDS011;13384;24.794;110.498;2022-10-16T14:34:02;21.52;;;14.18;;
25467;SDS011;13384;24.794;110.498;2022-10-16T14:37:40;21.00;;;14.02;;
25467;SDS011;13384;24.794;110.498;2022-10-16T14:40:27;21.70;;;13.70;;
25467;SDS011;13384;24.794;110.498;2022-10-16T14:43:20;21.95;;;15.13;;
25467;SDS011;13384;24.794;110.498;2022-10-16T14:46:30;20.25;;;14.20;;
25467;SDS011;13384;24.794;110.498;2022-10-16T14:49:22;19.67;;;14.18;;
25467;SDS011;13384;24.794;110.498;2022-10-16T14:51:52;19.70;;;13.75;;
25467;SDS011;13384;24.794;110.498;2022-10-16T14:54:41;22.35;;;14.32;;
25467;SDS011;13384;24.794;110.498;2022-10-16T14:57:31;20.17;;;13.65;;
25467;SDS011;13384;24.794;110.498;2022-10-16T15:00:23;22.05;;;14.52;;
25467;SDS011;13384;24.794;110.498;2022-10-16T15:03:04;19.30;;;13.32;;
25467;SDS011;13384;24.794;110.498;2022-10-16T15:05:56;19.48;;;14.00;;
25467;SDS011;13384;24.794;110.498;2022-10-16T15:08:48;19.15;;;13.35;;
25467;SDS011;13384;24.794;110.498;2022-10-16T15:11:39;18.88;;;13.60;;
25467;SDS011;13384;24.794;110.498;2022-10-16T15:14:34;19.38;;;13.55;;
25467;SDS011;13384;24.794;110.498;2022-10-16T15:17:31;20.85;;;13.82;;
25467;SDS011;13384;24.794;110.498;2022-10-16T15:20:04;19.42;;;13.68;;
25467;SDS011;13384;24.794;110.498;2022-10-16T15:23:22;20.15;;;13.43;;
25467;SDS011;13384;24.794;110.498;2022-10-16T15:26:27;21.60;;;14.25;;
25467;SDS011;13384;24.794;110.498;2022-10-16T15:28:57;19.52;;;13.18;;
25467;SDS011;13384;24.794;110.498;2022-10-16T15:31:26;19.70;;;13.45;;
25467;SDS011;13384;24.794;110.498;2022-10-16T15:33:55;16.85;;;12.35;;
25467;SDS011;13384;24.794;110.498;2022-10-16T15:36:51;19.30;;;12.98;;
25467;SDS011;13384;24.794;110.498;2022-10-16T15:39:42;20.85;;;13.45;;
25467;SDS011;13384;24.794;110.498;2022-10-16T15:42:11;19.52;;;13.32;;
25467;SDS011;13384;24.794;110.498;2022-10-16T15:45:00;17.20;;;13.38;;
25467;SDS011;13384;24.794;110.498;2022-10-16T15:47:31;21.30;;;13.82;;
25467;SDS011;13384;24.794;110.498;2022-10-16T15:50:00;16.85;;;13.35;;
25467;SDS011;13384;24.794;110.498;2022-10-16T15:53:04;19.00;;;13.37;;
25467;SDS011;13384;24.794;110.498;2022-10-16T15:55:33;17.55;;;12.50;;
25467;SDS011;13384;24.794;110.498;2022-10-16T15:58:05;18.60;;;13.02;;
25467;SDS011;13384;24.794;110.498;2022-10-16T16:00:55;20.23;;;12.95;;
25467;SDS011;13384;24.794;110.498;2022-10-16T16:03:30;20.38;;;13.60;;
25467;SDS011;13384;24.794;110.498;2022-10-16T16:06:14;18.13;;;12.73;;
25467;SDS011;13384;24.794;110.498;2022-10-16T16:09:18;20.95;;;13.55;;
25467;SDS011;13384;24.794;110.498;2022-10-16T16:11:48;17.60;;;12.43;;
25467;SDS011;13384;24.794;110.498;2022-10-16T16:14:45;16.88;;;12.68;;
25467;SDS011;13384;24.794;110.498;2022-10-16T16:17:31;19.08;;;12.90;;
25467;SDS011;13384;24.794;110.498;2022-10-16T16:20:01;17.95;;;12.77;;
25467;SDS011;13384;24.794;110.498;2022-10-16T16:22:31;19.52;;;12.52;;
25467;SDS011;13384;24.794;110.498;2022-10-16T16:25:35;17.95;;;12.35;;
25467;SDS011;13384;24.794;110.498;2022-10-16T16:28:06;17.42;;;12.30;;
25467;SDS011;13384;24.794;110.498;2022-10-16T16:30:39;18.15;;;12.85;;
25467;SDS011;13384;24.794;110.498;2022-10-16T16:33:43;20.33;;;13.85;;
25467;SDS011;13384;24.794;110.498;2022-10-16T16:36:28;17.77;;;12.75;;
25467;SDS011;13384;24.794;110.498;2022-10-16T16:39:35;18.45;;;12.30;;
25467;SDS011;13384;24.794;110.498;2022-10-16T16:42:27;16.55;;;12.63;;
25467;SDS011;13384;24.794;110.498;2022-10-16T16:45:22;16.17;;;12.00;;
25467;SDS011;13384;24.794;110.498;2022-10-16T16:48:12;19.50;;;12.63;;
25467;SDS011;13384;24.794;110.498;2022-10-16T16:50:41;17.13;;;12.60;;
25467;SDS011;13384;24.794;110.498;2022-10-16T16:53:10;17.95;;;12.82;;
25467;SDS011;13384;24.794;110.498;2022-10-16T16:56:05;17.52;;;12.63;;
25467;SDS011;13384;24.794;110.498;2022-10-16T16:59:03;16.50;;;12.27;;
25467;SDS011;13384;24.794;110.498;2022-10-16T17:01:54;19.58;;;12.05;;
25467;SDS011;13384;24.794;110.498;2022-10-16T17:04:23;15.93;;;12.10;;
25467;SDS011;13384;24.794;110.498;2022-10-16T17:07:13;17.20;;;12.38;;
25467;SDS011;13384;24.794;110.498;2022-10-16T17:10:02;16.65;;;12.93;;
25467;SDS011;13384;24.794;110.498;2022-10-16T17:12:39;17.67;;;12.48;;
25467;SDS011;13384;24.794;110.498;2022-10-16T17:15:10;17.67;;;12.25;;
25467;SDS011;13384;24.794;110.498;2022-10-16T17:18:01;19.17;;;12.80;;
25467;SDS011;13384;24.794;110.498;2022-10-16T17:20:56;16.17;;;12.60;;
25467;SDS011;13384;24.794;110.498;2022-10-16T17:23:53;17.13;;;11.57;;
25467;SDS011;13384;24.794;110.498;2022-10-16T17:26:47;17.60;;;12.48;;
25467;SDS011;13384;24.794;110.498;2022-10-16T17:29:40;22.48;;;14.23;;
25467;SDS011;13384;24.794;110.498;2022-10-16T17:32:15;16.77;;;11.95;;
25467;SDS011;13384;24.794;110.498;2022-10-16T17:35:07;16.90;;;12.18;;
25467;SDS011;13384;24.794;110.498;2022-10-16T17:37:51;20.83;;;13.15;;
25467;SDS011;13384;24.794;110.498;2022-10-16T17:41:18;16.25;;;12.07;;
25467;SDS011;13384;24.794;110.498;2022-10-16T17:44:09;17.88;;;12.77;;
25467;SDS011;13384;24.794;110.498;2022-10-16T17:46:57;17.15;;;12.40;;
25467;SDS011;13384;24.794;110.498;2022-10-16T17:49:25;20.58;;;14.00;;
25467;SDS011;13384;24.794;110.498;2022-10-16T17:52:20;18.50;;;12.93;;
25467;SDS011;13384;24.794;110.498;2022-10-16T17:55:09;15.63;;;11.73;;
25467;SDS011;13384;24.794;110.498;2022-10-16T17:57:51;17.58;;;13.20;;
25467;SDS011;13384;24.794;110.498;2022-10-16T18:01:01;18.55;;;12.73;;
25467;SDS011;13384;24.794;110.498;2022-10-16T18:04:04;15.57;;;11.80;;
25467;SDS011;13384;24.794;110.498;2022-10-16T18:07:20;20.50;;;13.13;;
25467;SDS011;13384;24.794;110.498;2022-10-16T18:10:14;17.42;;;12.93;;
25467;SDS011;13384;24.794;110.498;2022-10-16T18:12:48;15.65;;;12.43;;